Time,TemperatureF,DewpointF,PressureIn,WindDirection,WindDirectionDegrees,WindSpeedMPH,WindSpeedGustMPH,Humidity,HourlyPrecipIn,Conditions,Clouds,dailyrainin,SoftwareType,DateUTC
2013-04-10 00:02:00,63.0,16.0,-100.00,North,-999,-999.0,-999.0,16,-99.99,,,-99.99,,2013-04-10 00:02:00,
2013-04-10 00:12:00,63.0,16.0,-100.00,North,-999,-999.0,-999.0,16,-99.99,,,-99.99,,2013-04-10 00:12:00,
2013-04-10 00:22:00,63.0,16.0,-100.00,North,-999,-999.0,-999.0,16,-99.99,,,-99.99,,2013-04-10 00:22:00,
2013-04-10 00:32:00,63.0,16.0,-100.00,North,-999,-999.0,-999.0,16,-99.99,,,-99.99,,2013-04-10 00:32:00,
2013-04-10 00:42:00,63.0,16.0,-100.00,North,-999,-999.0,-999.0,16,-99.99,,,-99.99,,2013-04-10 00:42:00,
2013-04-10 00:52:00,63.0,16.0,-100.00,North,-999,-999.0,-999.0,16,-99.99,,,-99.99,,2013-04-10 00:52:00,
2013-04-10 01:01:00,62.0,15.0,-100.00,North,-999,-999.0,-999.0,16,-99.99,,,-99.99,,2013-04-10 01:01:00,
2013-04-10 01:12:00,62.0,15.0,-100.00,North,-999,-999.0,-999.0,16,-99.99,,,-99.99,,2013-04-10 01:12:00,
2013-04-10 01:22:00,62.0,15.0,-100.00,North,-999,-999.0,-999.0,16,-99.99,,,-99.99,,2013-04-10 01:22:00,
2013-04-10 01:31:00,60.0,16.0,-100.00,North,-999,-999.0,-999.0,18,-99.99,,,-99.99,,2013-04-10 01:31:00,
2013-04-10 01:43:00,60.0,16.0,-100.00,North,-999,-999.0,-999.0,18,-99.99,,,-99.99,,2013-04-10 01:43:00,
2013-04-10 01:52:00,60.0,16.0,-100.00,North,-999,-999.0,-999.0,18,-99.99,,,-99.99,,2013-04-10 01:52:00,
2013-04-10 02:01:00,60.0,18.0,-100.00,North,-999,-999.0,-999.0,19,-99.99,,,-99.99,,2013-04-10 02:01:00,
2013-04-10 02:12:00,60.0,18.0,-100.00,North,-999,-999.0,-999.0,19,-99.99,,,-99.99,,2013-04-10 02:12:00,
2013-04-10 02:22:00,60.0,18.0,-100.00,North,-999,-999.0,-999.0,19,-99.99,,,-99.99,,2013-04-10 02:22:00,
2013-04-10 02:32:00,58.0,16.0,-100.00,North,-999,-999.0,-999.0,19,-99.99,,,-99.99,,2013-04-10 02:32:00,
2013-04-10 02:43:00,58.0,16.0,-100.00,North,-999,-999.0,-999.0,19,-99.99,,,-99.99,,2013-04-10 02:43:00,
2013-04-10 02:52:00,58.0,16.0,-100.00,North,-999,-999.0,-999.0,19,-99.99,,,-99.99,,2013-04-10 02:52:00,
2013-04-10 03:02:00,56.0,16.0,-100.00,North,-999,-999.0,-999.0,20,-99.99,,,-99.99,,2013-04-10 03:02:00,
2013-04-10 03:32:00,54.0,16.0,-100.00,North,-999,-999.0,-999.0,22,-99.99,,,-99.99,,2013-04-10 03:32:00,
2013-04-10 03:43:00,54.0,16.0,-100.00,North,-999,-999.0,-999.0,22,-99.99,,,-99.99,,2013-04-10 03:43:00,
2013-04-10 03:52:00,54.0,16.0,-100.00,North,-999,-999.0,-999.0,22,-99.99,,,-99.99,,2013-04-10 03:52:00,
2013-04-10 04:02:00,54.0,16.0,-100.00,North,-999,-999.0,-999.0,22,-99.99,,,-99.99,,2013-04-10 04:02:00,
2013-04-10 04:33:00,45.0,15.0,-100.00,North,-999,-999.0,-999.0,30,-99.99,,,-99.99,,2013-04-10 04:33:00,
2013-04-10 04:43:00,45.0,15.0,-100.00,North,-999,-999.0,-999.0,30,-99.99,,,-99.99,,2013-04-10 04:43:00,
2013-04-10 04:53:00,45.0,15.0,-100.00,North,-999,-999.0,-999.0,30,-99.99,,,-99.99,,2013-04-10 04:53:00,
2013-04-10 05:02:00,43.0,17.0,-100.00,North,-999,-999.0,-999.0,34,-99.99,,,-99.99,,2013-04-10 05:02:00,
2013-04-10 05:12:00,43.0,17.0,-100.00,North,-999,-999.0,-999.0,34,-99.99,,,-99.99,,2013-04-10 05:12:00,
2013-04-10 05:22:00,43.0,17.0,-100.00,North,-999,-999.0,-999.0,34,-99.99,,,-99.99,,2013-04-10 05:22:00,
2013-04-10 06:02:00,39.0,18.0,-100.00,North,-999,-999.0,-999.0,42,-99.99,,,-99.99,,2013-04-10 06:02:00,
2013-04-10 06:32:00,37.0,17.0,-100.00,North,-999,-999.0,-999.0,44,-99.99,,,-99.99,,2013-04-10 06:32:00,
2013-04-10 07:02:00,36.0,19.0,-100.00,North,-999,-999.0,-999.0,49,-99.99,,,-99.99,,2013-04-10 07:02:00,
2013-04-10 07:12:00,36.0,19.0,-100.00,North,-999,-999.0,-999.0,49,-99.99,,,-99.99,,2013-04-10 07:12:00,
2013-04-10 07:22:00,36.0,19.0,-100.00,North,-999,-999.0,-999.0,49,-99.99,,,-99.99,,2013-04-10 07:22:00,
2013-04-10 07:32:00,51.0,28.0,-100.00,North,-999,-999.0,-999.0,41,-99.99,,,-99.99,,2013-04-10 07:32:00,
2013-04-10 07:43:00,51.0,28.0,-100.00,North,-999,-999.0,-999.0,41,-99.99,,,-99.99,,2013-04-10 07:43:00,
2013-04-10 07:52:00,51.0,28.0,-100.00,North,-999,-999.0,-999.0,41,-99.99,,,-99.99,,2013-04-10 07:52:00,
2013-04-10 08:02:00,52.0,25.0,-100.00,North,-999,-999.0,-999.0,35,-99.99,,,-99.99,,2013-04-10 08:02:00,
2013-04-10 08:12:00,52.0,25.0,-100.00,North,-999,-999.0,-999.0,35,-99.99,,,-99.99,,2013-04-10 08:12:00,
2013-04-10 08:22:00,52.0,25.0,-100.00,North,-999,-999.0,-999.0,35,-99.99,,,-99.99,,2013-04-10 08:22:00,
2013-04-10 08:32:00,55.0,26.0,-100.00,North,-999,-999.0,-999.0,32,-99.99,,,0.00,,2013-04-10 08:32:00,
2013-04-10 08:52:00,55.0,26.0,-100.00,North,-999,-999.0,-999.0,32,-99.99,,,0.00,,2013-04-10 08:52:00,
2013-04-10 09:02:00,55.0,26.0,-100.00,North,-999,-999.0,-999.0,32,-99.99,,,-99.99,,2013-04-10 09:02:00,
2013-04-10 09:12:00,55.0,26.0,-100.00,North,-999,-999.0,-999.0,32,-99.99,,,-99.99,,2013-04-10 09:12:00,
2013-04-10 09:22:00,55.0,26.0,-100.00,North,-999,-999.0,-999.0,32,-99.99,,,-99.99,,2013-04-10 09:22:00,
2013-04-10 09:32:00,54.0,24.0,-100.00,North,-999,-999.0,-999.0,31,-99.99,,,-99.99,,2013-04-10 09:32:00,
2013-04-10 09:43:00,54.0,24.0,-100.00,North,-999,-999.0,-999.0,31,-99.99,,,-99.99,,2013-04-10 09:43:00,
2013-04-10 09:53:00,54.0,24.0,-100.00,North,-999,-999.0,-999.0,31,-99.99,,,-99.99,,2013-04-10 09:53:00,
2013-04-10 10:02:00,56.0,23.0,-100.00,North,-999,-999.0,-999.0,27,-99.99,,,-99.99,,2013-04-10 10:02:00,
2013-04-10 10:12:00,56.0,23.0,-100.00,North,-999,-999.0,-999.0,27,-99.99,,,-99.99,,2013-04-10 10:12:00,
2013-04-10 10:23:00,56.0,23.0,-100.00,North,-999,-999.0,-999.0,27,-99.99,,,-99.99,,2013-04-10 10:23:00,
2013-04-10 10:33:00,47.0,21.0,-100.00,North,-999,-999.0,-999.0,35,-99.99,,,-99.99,,2013-04-10 10:33:00,
2013-04-10 10:43:00,47.0,21.0,-100.00,North,-999,-999.0,-999.0,35,-99.99,,,-99.99,,2013-04-10 10:43:00,
2013-04-10 10:52:00,47.0,21.0,-100.00,North,-999,-999.0,-999.0,35,-99.99,,,-99.99,,2013-04-10 10:52:00,
2013-04-10 11:02:00,44.0,21.0,-100.00,North,-999,-999.0,-999.0,39,-99.99,,,-99.99,,2013-04-10 11:02:00,
2013-04-10 11:12:00,44.0,21.0,-100.00,North,-999,-999.0,-999.0,39,-99.99,,,-99.99,,2013-04-10 11:12:00,
2013-04-10 11:22:00,44.0,21.0,-100.00,North,-999,-999.0,-999.0,39,-99.99,,,-99.99,,2013-04-10 11:22:00,
2013-04-10 11:32:00,40.0,20.0,-100.00,North,-999,-999.0,-999.0,45,-99.99,,,-99.99,,2013-04-10 11:32:00,
2013-04-10 11:42:00,40.0,20.0,-100.00,North,-999,-999.0,-999.0,45,-99.99,,,-99.99,,2013-04-10 11:42:00,
2013-04-10 11:53:00,40.0,20.0,-100.00,North,-999,-999.0,-999.0,45,-99.99,,,-99.99,,2013-04-10 11:53:00,
2013-04-10 12:02:00,38.0,21.0,-100.00,North,-999,-999.0,-999.0,50,-99.99,,,-99.99,,2013-04-10 12:02:00,
2013-04-10 12:12:00,38.0,21.0,-100.00,North,-999,-999.0,-999.0,50,-99.99,,,-99.99,,2013-04-10 12:12:00,
2013-04-10 12:22:00,38.0,21.0,-100.00,North,-999,-999.0,-999.0,50,-99.99,,,-99.99,,2013-04-10 12:22:00,
2013-04-10 12:32:00,34.0,21.0,-100.00,North,-999,-999.0,-999.0,58,-99.99,,,-99.99,,2013-04-10 12:32:00,
2013-04-10 12:43:00,34.0,21.0,-100.00,North,-999,-999.0,-999.0,58,-99.99,,,-99.99,,2013-04-10 12:43:00,
2013-04-10 12:52:00,34.0,21.0,-100.00,North,-999,-999.0,-999.0,58,-99.99,,,-99.99,,2013-04-10 12:52:00,
2013-04-10 13:02:00,33.0,20.0,-100.00,North,-999,-999.0,-999.0,59,-99.99,,,-99.99,,2013-04-10 13:02:00,
2013-04-10 13:12:00,33.0,20.0,-100.00,North,-999,-999.0,-999.0,59,-99.99,,,-99.99,,2013-04-10 13:12:00,
2013-04-10 13:23:00,33.0,20.0,-100.00,North,-999,-999.0,-999.0,59,-99.99,,,-99.99,,2013-04-10 13:23:00,
2013-04-10 13:32:00,31.0,20.0,-100.00,North,-999,-999.0,-999.0,64,-99.99,,,-99.99,,2013-04-10 13:32:00,
2013-04-10 13:53:00,31.0,20.0,-100.00,North,-999,-999.0,-999.0,64,-99.99,,,-99.99,,2013-04-10 13:53:00,
2013-04-10 14:02:00,30.0,20.0,-100.00,North,-999,-999.0,-999.0,65,-99.99,,,-99.99,,2013-04-10 14:02:00,
2013-04-10 14:12:00,30.0,20.0,-100.00,North,-999,-999.0,-999.0,65,-99.99,,,-99.99,,2013-04-10 14:12:00,
2013-04-10 14:22:00,30.0,20.0,-100.00,North,-999,-999.0,-999.0,65,-99.99,,,-99.99,,2013-04-10 14:22:00,
2013-04-10 14:32:00,30.0,20.0,-100.00,North,-999,-999.0,-999.0,67,-99.99,,,-99.99,,2013-04-10 14:32:00,
2013-04-10 14:42:00,30.0,20.0,-100.00,North,-999,-999.0,-999.0,67,-99.99,,,-99.99,,2013-04-10 14:42:00,
2013-04-10 14:52:00,30.0,20.0,-100.00,North,-999,-999.0,-999.0,67,-99.99,,,-99.99,,2013-04-10 14:52:00,
2013-04-10 15:02:00,30.0,20.0,-100.00,North,-999,-999.0,-999.0,65,-99.99,,,-99.99,,2013-04-10 15:02:00,
2013-04-10 15:12:00,30.0,20.0,-100.00,North,-999,-999.0,-999.0,65,-99.99,,,-99.99,,2013-04-10 15:12:00,
2013-04-10 15:22:00,30.0,20.0,-100.00,North,-999,-999.0,-999.0,65,-99.99,,,-99.99,,2013-04-10 15:22:00,
2013-04-10 15:32:00,30.0,20.0,-100.00,North,-999,-999.0,-999.0,65,-99.99,,,-99.99,,2013-04-10 15:32:00,
2013-04-10 16:02:00,53.0,24.0,-100.00,North,-999,-999.0,-999.0,32,-99.99,,,-99.99,,2013-04-10 16:02:00,
2013-04-10 16:13:00,53.0,24.0,-100.00,North,-999,-999.0,-999.0,32,-99.99,,,-99.99,,2013-04-10 16:13:00,
2013-04-10 16:23:00,53.0,24.0,-100.00,North,-999,-999.0,-999.0,32,-99.99,,,-99.99,,2013-04-10 16:23:00,
2013-04-10 16:32:00,61.0,24.0,-100.00,North,-999,-999.0,-999.0,24,-99.99,,,-99.99,,2013-04-10 16:32:00,
2013-04-10 16:43:00,61.0,24.0,-100.00,North,-999,-999.0,-999.0,24,-99.99,,,-99.99,,2013-04-10 16:43:00,
2013-04-10 16:53:00,61.0,24.0,-100.00,North,-999,-999.0,-999.0,24,-99.99,,,-99.99,,2013-04-10 16:53:00,
2013-04-10 17:02:00,67.0,22.0,-100.00,North,-999,-999.0,-999.0,18,-99.99,,,-99.99,,2013-04-10 17:02:00,
2013-04-10 17:12:00,67.0,22.0,-100.00,North,-999,-999.0,-999.0,18,-99.99,,,-99.99,,2013-04-10 17:12:00,
2013-04-10 17:22:00,67.0,22.0,-100.00,North,-999,-999.0,-999.0,18,-99.99,,,-99.99,,2013-04-10 17:22:00,
2013-04-10 17:33:00,68.0,15.0,-100.00,North,-999,-999.0,-999.0,13,-99.99,,,-99.99,,2013-04-10 17:33:00,
2013-04-10 17:43:00,68.0,15.0,-100.00,North,-999,-999.0,-999.0,13,-99.99,,,-99.99,,2013-04-10 17:43:00,
2013-04-10 17:52:00,68.0,15.0,-100.00,North,-999,-999.0,-999.0,13,-99.99,,,-99.99,,2013-04-10 17:52:00,
2013-04-10 18:02:00,68.0,15.0,-100.00,North,-999,-999.0,-999.0,13,-99.99,,,-99.99,,2013-04-10 18:02:00,
2013-04-10 20:33:00,71.0,24.0,-100.00,North,-999,-999.0,-999.0,17,-99.99,,,-99.99,,2013-04-10 20:33:00,
2013-04-10 20:42:00,71.0,24.0,-100.00,North,-999,-999.0,-999.0,17,-99.99,,,-99.99,,2013-04-10 20:42:00,
2013-04-10 20:52:00,71.0,24.0,-100.00,North,-999,-999.0,-999.0,17,-99.99,,,-99.99,,2013-04-10 20:52:00,
2013-04-10 21:02:00,73.0,27.0,-100.00,North,-999,-999.0,-999.0,18,-99.99,,,-99.99,,2013-04-10 21:02:00,
2013-04-10 21:12:00,73.0,27.0,-100.00,North,-999,-999.0,-999.0,18,-99.99,,,-99.99,,2013-04-10 21:12:00,
2013-04-10 21:22:00,73.0,27.0,-100.00,North,-999,-999.0,-999.0,18,-99.99,,,-99.99,,2013-04-10 21:22:00,
2013-04-10 21:32:00,74.0,30.0,-100.00,North,-999,-999.0,-999.0,20,-99.99,,,-99.99,,2013-04-10 21:32:00,
2013-04-10 21:43:00,74.0,30.0,-100.00,North,-999,-999.0,-999.0,20,-99.99,,,-99.99,,2013-04-10 21:43:00,
2013-04-10 21:53:00,74.0,30.0,-100.00,North,-999,-999.0,-999.0,20,-99.99,,,-99.99,,2013-04-10 21:53:00,
2013-04-10 22:02:00,74.0,30.0,-100.00,North,-999,-999.0,-999.0,20,-99.99,,,-99.99,,2013-04-10 22:02:00,
2013-04-10 23:02:00,75.0,29.0,-100.00,North,-999,-999.0,-999.0,18,-99.99,,,-99.99,,2013-04-10 23:02:00,
2013-04-10 23:12:00,75.0,29.0,-100.00,North,-999,-999.0,-999.0,18,-99.99,,,-99.99,,2013-04-10 23:12:00,
2013-04-10 23:22:00,75.0,29.0,-100.00,North,-999,-999.0,-999.0,18,-99.99,,,-99.99,,2013-04-10 23:22:00,
2013-04-10 23:32:00,75.0,29.0,-100.00,North,-999,-999.0,-999.0,18,-99.99,,,-99.99,,2013-04-10 23:32:00,
2013-04-10 23:43:00,75.0,29.0,-100.00,North,-999,-999.0,-999.0,18,-99.99,,,-99.99,,2013-04-10 23:43:00,
2013-04-10 23:52:00,75.0,29.0,-100.00,North,-999,-999.0,-999.0,18,-99.99,,,-99.99,,2013-04-10 23:52:00,